Jock — WDF2423 — position and weather

sailwx.info

Track history (hours):
 
Tides and Currents Weather Stations Pressure Air Temp Water Temp Dewpoint Dewpoint Depression Visibility Wind Speed Wind Dir Waves Ship Positions

Jock

Owner: Enterprise Marine Services, LLC, San Antonio, TX. More information available from US FCC via Universal Licensing System and Coast Guard Vessel Documentation Center.

Last reported at 2016-Jun-25 07:32 UTC. Time now 2016-Jun-25 10:42 UTC.
Position N 29°45' W 095°10'.

Length 28 m; draft 3 m.

Type: Other ship. MMSI: 367003460.

Date/timePositionNaut miles runAvg speedWind from/ knotsBaromVisibWave heightAir tempDewpointWater temp
2016-Jun-25 07:32N 29°45' W 095°10'6 1.9
2016-Jun-25 04:31N 29°47' W 095°04'0 0.0
2016-Jun-25 03:30N 29°47' W 095°04'1 0.0
2016-Jun-23 21:16N 29°47' W 095°05'0 0.0
2016-Jun-23 20:29N 29°47' W 095°05'0 0.0
2016-Jun-23 19:25N 29°47' W 095°05'0 0.0
2016-Jun-23 18:28N 29°47' W 095°05'0 0.0
2016-Jun-23 17:26N 29°47' W 095°05'0 0.0
2016-Jun-23 04:28N 29°47' W 095°05'1 0.2
2016-Jun-22 23:10N 29°48' W 095°04'0 0.0
2016-Jun-22 21:04N 29°47' W 095°04'0 0.0
2016-Jun-22 06:31N 29°47' W 095°04'2 1.7
2016-Jun-22 05:33N 29°46' W 095°04'6 6.5
2016-Jun-22 04:33N 29°41' W 094°59'7 7.3
2016-Jun-22 03:32N 29°35' W 094°56'57 1.3
2016-Jun-20 06:14N 29°54' W 093°54'5 7.4
2016-Jun-20 05:33N 29°58' W 093°51'7 6.5
2016-Jun-20 04:33N 30°02' W 093°44'6 5.7
2016-Jun-20 03:33N 30°04' W 093°38'5 5.0
2016-Jun-20 02:33N 30°04' W 093°32'5 4.8
2016-Jun-20 01:33N 30°04' W 093°27'5 4.6
2016-Jun-20 00:33N 30°04' W 093°21'4 3.6
2016-Jun-19 23:33N 30°05' W 093°18'5 4.5
2016-Jun-19 22:33N 30°02' W 093°14'5 4.7
2016-Jun-19 21:33N 29°58' W 093°11'5 4.5
2016-Jun-19 20:33N 29°56' W 093°06'5 4.6
2016-Jun-19 19:33N 29°56' W 093°01'5 5.0
2016-Jun-19 18:33N 29°56' W 092°55'24 4.7
2016-Jun-19 13:29N 29°54' W 092°28'4 4.5
2016-Jun-19 12:33N 29°53' W 092°23'4 3.9
2016-Jun-19 11:33N 29°50' W 092°20'4 4.3
2016-Jun-19 10:33N 29°48' W 092°15'4 3.9
2016-Jun-19 09:33N 29°47' W 092°11'69 4.2
2016-Jun-18 17:05N 29°33' W 090°54'3 5.5
2016-Jun-18 16:33N 29°32' W 090°50'5 4.9
2016-Jun-18 15:33N 29°34' W 090°45'4 3.6
2016-Jun-18 14:33N 29°36' W 090°43'4 3.5
2016-Jun-18 13:33N 29°35' W 090°39'4 4.1
2016-Jun-18 12:33N 29°34' W 090°34'23 3.9
2016-Jun-18 06:33N 29°43' W 090°10'7 3.6
2016-Jun-18 04:33N 29°49' W 090°04'5 5.0
2016-Jun-18 03:33N 29°52' W 090°01'3 3.3
2016-Jun-18 02:33N 29°55' W 089°58'1 1.1
2016-Jun-18 01:33N 29°55' W 089°57'4 4.4
2016-Jun-18 00:33N 29°57' W 090°02'1 0.6
2016-Jun-17 23:33N 29°58' W 090°02'2 1.8
2016-Jun-17 22:33N 29°60' W 090°01'5 5.0
2016-Jun-17 21:30N 30°01' W 089°55'  
Track history (hours):
 
Tides and Currents Weather Stations Pressure Air Temp Water Temp Dewpoint Dewpoint Depression Visibility Wind Speed Wind Dir Waves Ship Positions

Jock

Owner: Enterprise Marine Services, LLC, San Antonio, TX. More information available from US FCC via Universal Licensing System and Coast Guard Vessel Documentation Center.

Last reported at 2016-Jun-25 07:32 UTC. Time now 2016-Jun-25 10:42 UTC.
Position N 29°45' W 095°10'.

Length 28 m; draft 3 m.

Type: Other ship. MMSI: 367003460.

Date/timePositionNaut miles runAvg speedWind from/ knotsBaromVisibWave heightAir tempDewpointWater temp
2016-Jun-25 07:32N 29°45' W 095°10'6 1.9
2016-Jun-25 04:31N 29°47' W 095°04'0 0.0
2016-Jun-25 03:30N 29°47' W 095°04'1 0.0
2016-Jun-23 21:16N 29°47' W 095°05'0 0.0
2016-Jun-23 20:29N 29°47' W 095°05'0 0.0
2016-Jun-23 19:25N 29°47' W 095°05'0 0.0
2016-Jun-23 18:28N 29°47' W 095°05'0 0.0
2016-Jun-23 17:26N 29°47' W 095°05'0 0.0
2016-Jun-23 04:28N 29°47' W 095°05'1 0.2
2016-Jun-22 23:10N 29°48' W 095°04'0 0.0
2016-Jun-22 21:04N 29°47' W 095°04'0 0.0
2016-Jun-22 06:31N 29°47' W 095°04'2 1.7
2016-Jun-22 05:33N 29°46' W 095°04'6 6.5
2016-Jun-22 04:33N 29°41' W 094°59'7 7.3
2016-Jun-22 03:32N 29°35' W 094°56'57 1.3
2016-Jun-20 06:14N 29°54' W 093°54'5 7.4
2016-Jun-20 05:33N 29°58' W 093°51'7 6.5
2016-Jun-20 04:33N 30°02' W 093°44'6 5.7
2016-Jun-20 03:33N 30°04' W 093°38'5 5.0
2016-Jun-20 02:33N 30°04' W 093°32'5 4.8
2016-Jun-20 01:33N 30°04' W 093°27'5 4.6
2016-Jun-20 00:33N 30°04' W 093°21'4 3.6
2016-Jun-19 23:33N 30°05' W 093°18'5 4.5
2016-Jun-19 22:33N 30°02' W 093°14'5 4.7
2016-Jun-19 21:33N 29°58' W 093°11'5 4.5
2016-Jun-19 20:33N 29°56' W 093°06'5 4.6
2016-Jun-19 19:33N 29°56' W 093°01'5 5.0
2016-Jun-19 18:33N 29°56' W 092°55'24 4.7
2016-Jun-19 13:29N 29°54' W 092°28'4 4.5
2016-Jun-19 12:33N 29°53' W 092°23'4 3.9
2016-Jun-19 11:33N 29°50' W 092°20'4 4.3
2016-Jun-19 10:33N 29°48' W 092°15'4 3.9
2016-Jun-19 09:33N 29°47' W 092°11'69 4.2
2016-Jun-18 17:05N 29°33' W 090°54'3 5.5
2016-Jun-18 16:33N 29°32' W 090°50'5 4.9
2016-Jun-18 15:33N 29°34' W 090°45'4 3.6
2016-Jun-18 14:33N 29°36' W 090°43'4 3.5
2016-Jun-18 13:33N 29°35' W 090°39'4 4.1
2016-Jun-18 12:33N 29°34' W 090°34'23 3.9
2016-Jun-18 06:33N 29°43' W 090°10'7 3.6
2016-Jun-18 04:33N 29°49' W 090°04'5 5.0
2016-Jun-18 03:33N 29°52' W 090°01'3 3.3
2016-Jun-18 02:33N 29°55' W 089°58'1 1.1
2016-Jun-18 01:33N 29°55' W 089°57'4 4.4
2016-Jun-18 00:33N 29°57' W 090°02'1 0.6
2016-Jun-17 23:33N 29°58' W 090°02'2 1.8
2016-Jun-17 22:33N 29°60' W 090°01'5 5.0
2016-Jun-17 21:30N 30°01' W 089°55'  

Dump ship's entire track history